createdAt,value
2019-01-10T00:00:13.946Z,3.27
2019-01-10T00:01:13.950Z,3.28
2019-01-10T00:02:13.960Z,3.30
2019-01-10T00:03:13.973Z,3.25
2019-01-10T00:04:14.003Z,3.20
2019-01-10T00:05:13.986Z,3.23
2019-01-10T00:06:14.000Z,3.23
2019-01-10T00:07:14.010Z,3.23
2019-01-10T00:08:14.018Z,3.25
2019-01-10T00:09:14.026Z,3.24
2019-01-10T00:10:14.182Z,3.18
2019-01-10T00:11:14.055Z,3.07
2019-01-10T00:12:14.066Z,3.16
2019-01-10T00:13:14.067Z,3.15
2019-01-10T00:14:14.089Z,3.15
2019-01-10T00:15:14.095Z,3.10
2019-01-10T00:16:14.159Z,3.15
2019-01-10T00:17:14.114Z,3.16
2019-01-10T00:18:14.126Z,3.07
2019-01-10T00:19:14.132Z,3.07
2019-01-10T00:20:14.143Z,3.02
2019-01-10T00:21:14.155Z,3.02
2019-01-10T00:22:14.165Z,2.97
2019-01-10T00:23:14.173Z,2.89
2019-01-10T00:24:14.190Z,2.98
2019-01-10T00:25:14.194Z,2.92
2019-01-10T00:26:14.208Z,2.82
2019-01-10T00:27:14.218Z,2.94
2019-01-10T00:28:14.225Z,2.94
2019-01-10T00:29:14.237Z,2.85
2019-01-10T00:30:14.246Z,2.87
2019-01-10T00:31:14.259Z,2.82
2019-01-10T00:32:14.274Z,2.87
2019-01-10T00:33:14.364Z,2.91
2019-01-10T00:34:14.289Z,2.94
2019-01-10T00:35:14.300Z,2.87
2019-01-10T00:36:14.306Z,2.91
2019-01-10T00:37:14.320Z,2.87
2019-01-10T00:38:14.333Z,2.97
2019-01-10T00:39:14.343Z,3.00
2019-01-10T00:40:14.355Z,2.85
2019-01-10T00:41:14.397Z,2.85
2019-01-10T00:42:14.373Z,2.87
2019-01-10T00:43:14.382Z,2.85
2019-01-10T00:44:14.393Z,2.85
2019-01-10T00:45:14.405Z,2.77
2019-01-10T00:46:14.416Z,2.74
2019-01-10T00:47:14.426Z,2.77
2019-01-10T00:48:14.433Z,2.53
2019-01-10T00:49:14.444Z,2.63
2019-01-10T00:50:14.455Z,2.56
2019-01-10T00:51:14.465Z,2.52
2019-01-10T00:52:14.476Z,2.58
2019-01-10T00:53:14.488Z,2.51
2019-01-10T00:54:14.498Z,2.55
2019-01-10T00:55:14.510Z,2.52
2019-01-10T00:56:14.517Z,2.51
2019-01-10T00:57:14.591Z,2.49
2019-01-10T00:58:14.555Z,2.51
2019-01-10T00:59:14.545Z,2.52
2019-01-10T01:00:14.565Z,2.53
2019-01-10T01:01:14.570Z,2.59
2019-01-10T01:02:14.582Z,2.51
2019-01-10T01:03:14.595Z,2.44
2019-01-10T01:04:14.603Z,2.48
2019-01-10T01:05:14.613Z,2.52
2019-01-10T01:06:15.761Z,2.52
2019-01-10T01:07:14.634Z,2.46
2019-01-10T01:08:14.641Z,2.40
2019-01-10T01:09:14.650Z,2.49
2019-01-10T01:10:14.666Z,2.44
2019-01-10T01:11:14.679Z,2.49
2019-01-10T01:12:14.689Z,2.37
2019-01-10T01:13:14.694Z,2.40
2019-01-10T01:14:14.703Z,2.38
2019-01-10T01:15:14.718Z,2.44
2019-01-10T01:16:14.743Z,2.35
2019-01-10T01:17:15.891Z,2.49
2019-01-10T01:18:14.747Z,2.45
2019-01-10T01:19:14.761Z,2.52
2019-01-10T01:20:14.764Z,2.67
2019-01-10T01:21:14.776Z,2.53
2019-01-10T01:22:14.789Z,2.52
2019-01-10T01:23:14.801Z,2.58
2019-01-10T01:24:14.807Z,2.52
2019-01-10T01:25:14.821Z,2.69
2019-01-10T01:26:14.828Z,2.64
2019-01-10T01:27:14.846Z,2.56
2019-01-10T01:28:14.851Z,2.56
2019-01-10T01:29:14.859Z,2.56
2019-01-10T01:30:14.873Z,2.41
2019-01-10T01:31:14.880Z,2.34
2019-01-10T01:32:14.891Z,2.33
2019-01-10T01:33:14.902Z,2.34
2019-01-10T01:34:14.920Z,2.28
2019-01-10T01:35:14.924Z,2.27
2019-01-10T01:36:14.933Z,2.28
2019-01-10T01:37:14.939Z,2.19
2019-01-10T01:38:14.953Z,2.16
2019-01-10T01:39:14.961Z,2.10
2019-01-10T01:40:14.974Z,2.09
2019-01-10T01:41:14.985Z,2.09
2019-01-10T01:42:14.997Z,2.09
2019-01-10T01:43:15.006Z,2.01
2019-01-10T01:44:15.016Z,2.01
2019-01-10T01:45:15.021Z,1.91
2019-01-10T01:46:15.034Z,1.99
2019-01-10T01:47:15.045Z,1.91
2019-01-10T01:48:15.056Z,1.98
2019-01-10T01:49:15.065Z,1.83
2019-01-10T01:50:15.074Z,1.91
2019-01-10T01:51:15.089Z,1.94
2019-01-10T01:52:15.096Z,1.91
2019-01-10T01:53:15.133Z,1.90
2019-01-10T01:54:15.120Z,1.87
2019-01-10T01:55:15.133Z,1.80
2019-01-10T01:56:15.142Z,1.79
2019-01-10T01:57:15.149Z,1.80
2019-01-10T01:58:15.157Z,1.90
2019-01-10T01:59:15.171Z,1.90
2019-01-10T02:00:15.180Z,1.85
2019-01-10T02:01:15.189Z,1.75
2019-01-10T02:02:15.199Z,1.76
2019-01-10T02:03:15.214Z,1.68
2019-01-10T02:04:15.217Z,1.68
2019-01-10T02:05:15.227Z,1.60
2019-01-10T02:06:15.241Z,1.73
2019-01-10T02:07:15.247Z,1.72
2019-01-10T02:08:15.270Z,1.75
2019-01-10T02:09:15.271Z,1.78
2019-01-10T02:10:15.294Z,1.73
2019-01-10T02:11:15.289Z,1.65
2019-01-10T02:12:15.297Z,1.72
2019-01-10T02:13:16.995Z,1.64
2019-01-10T02:14:15.318Z,1.68
2019-01-10T02:15:15.330Z,1.68
2019-01-10T02:16:15.339Z,1.62
2019-01-10T02:17:15.356Z,1.69
2019-01-10T02:18:15.361Z,1.69
2019-01-10T02:19:15.371Z,1.71
2019-01-10T02:20:15.439Z,1.78
2019-01-10T02:21:15.398Z,1.68
2019-01-10T02:22:15.411Z,1.76
2019-01-10T02:23:15.415Z,1.80
2019-01-10T02:24:15.423Z,1.80
2019-01-10T02:25:15.432Z,1.79
2019-01-10T02:26:15.449Z,1.79
2019-01-10T02:27:15.457Z,1.85
2019-01-10T02:28:15.479Z,1.87
2019-01-10T02:29:15.471Z,1.82
2019-01-10T02:30:15.496Z,1.75
2019-01-10T02:31:15.537Z,1.73
2019-01-10T02:32:15.508Z,1.75
2019-01-10T02:33:15.517Z,1.80
2019-01-10T02:34:15.525Z,1.83
2019-01-10T02:35:15.544Z,1.78
2019-01-10T02:36:15.557Z,1.80
2019-01-10T02:37:15.557Z,1.90
2019-01-10T02:38:15.582Z,1.90
2019-01-10T02:39:15.579Z,1.90
2019-01-10T02:40:15.594Z,1.89
2019-01-10T02:41:15.599Z,1.85
2019-01-10T02:42:15.614Z,1.83
2019-01-10T02:43:15.621Z,1.91
2019-01-10T02:44:15.625Z,1.85
2019-01-10T02:45:15.638Z,1.80
2019-01-10T02:46:15.656Z,1.87
2019-01-10T02:47:15.660Z,1.76
2019-01-10T02:48:15.680Z,1.80
2019-01-10T02:49:15.685Z,1.78
2019-01-10T02:50:15.693Z,1.73
2019-01-10T02:51:15.702Z,1.85
2019-01-10T02:52:15.715Z,1.79
2019-01-10T02:53:15.730Z,1.89
2019-01-10T02:54:15.845Z,1.79
2019-01-10T02:55:15.750Z,1.83
2019-01-10T02:56:15.753Z,1.85
2019-01-10T02:57:15.767Z,1.89
2019-01-10T02:58:15.774Z,1.85
2019-01-10T02:59:15.786Z,1.90
2019-01-10T03:00:15.806Z,1.87
2019-01-10T03:01:15.804Z,1.82
2019-01-10T03:02:15.812Z,1.78
2019-01-10T03:03:15.825Z,1.80
2019-01-10T03:04:15.847Z,1.79
2019-01-10T03:05:15.848Z,1.80
2019-01-10T03:06:15.854Z,1.79
2019-01-10T03:07:15.864Z,1.79
2019-01-10T03:08:15.875Z,1.79
2019-01-10T03:09:15.887Z,1.82
2019-01-10T03:38:48.369Z,1.62
2019-01-10T03:39:48.350Z,1.71
2019-01-10T03:41:40.237Z,1.64
2019-01-10T03:42:40.233Z,1.72
2019-01-10T03:44:34.388Z,1.61
2019-01-10T03:45:32.157Z,1.50
2019-01-10T03:47:24.041Z,1.51
2019-01-10T03:48:24.043Z,1.50
2019-01-10T03:50:15.965Z,1.50
2019-01-10T03:51:15.946Z,1.55
2019-01-10T03:53:07.856Z,1.52
2019-01-10T03:54:07.839Z,1.44
2019-01-10T03:55:59.761Z,1.42
2019-01-10T03:56:59.741Z,1.43
2019-01-10T03:58:51.681Z,1.50
2019-01-10T03:59:52.901Z,1.54
2019-01-10T04:01:43.540Z,1.43
2019-01-10T04:02:43.544Z,1.46
2019-01-10T04:04:35.458Z,1.50
2019-01-10T04:05:35.441Z,1.52
2019-01-10T04:07:27.341Z,1.60
2019-01-10T04:08:27.346Z,1.51
2019-01-10T04:10:19.272Z,1.57
2019-01-10T04:11:19.253Z,1.64
2019-01-10T04:13:11.645Z,1.60
2019-01-10T04:14:11.649Z,1.71
2019-01-10T04:16:03.569Z,1.68
2019-01-10T04:17:03.552Z,1.52
2019-01-10T04:18:55.468Z,1.58
2019-01-10T04:19:55.482Z,1.47
2019-01-10T04:21:47.862Z,1.65
2019-01-10T04:22:47.856Z,1.72
2019-01-10T04:24:39.790Z,1.69
2019-01-10T04:25:39.773Z,1.52
2019-01-10T04:27:31.671Z,1.46
2019-01-10T04:28:31.671Z,1.47
2019-01-10T04:30:23.601Z,1.55
2019-01-10T04:31:23.583Z,1.61
2019-01-10T04:33:15.505Z,1.68
2019-01-10T04:34:15.505Z,1.69
2019-01-10T04:36:07.902Z,1.69
2019-01-10T04:37:07.893Z,1.75
2019-01-10T04:38:59.797Z,1.65
2019-01-10T04:39:59.805Z,1.76
2019-01-10T04:41:51.713Z,1.72
2019-01-10T04:42:51.697Z,1.68
2019-01-10T04:44:43.650Z,1.68
2019-01-10T04:45:43.602Z,1.76
2019-01-10T04:47:35.501Z,1.83
2019-01-10T04:48:35.502Z,1.75
2019-01-10T04:50:27.439Z,1.83
2019-01-10T04:51:27.417Z,1.80
2019-01-10T04:53:19.343Z,1.87
2019-01-10T04:54:19.344Z,1.83
2019-01-10T04:56:11.263Z,1.87
2019-01-10T04:57:11.255Z,1.89
2019-01-10T04:59:03.156Z,1.83
2019-01-10T05:00:03.155Z,2.10
2019-01-10T05:01:55.070Z,2.12
2019-01-10T05:02:55.050Z,2.16
2019-01-10T05:04:47.812Z,2.16
2019-01-10T05:05:47.539Z,2.28
2019-01-10T05:07:39.442Z,2.28
2019-01-10T05:08:39.451Z,2.31
2019-01-10T05:10:31.366Z,2.28
2019-01-10T05:11:31.346Z,2.26
2019-01-10T05:13:23.254Z,2.34
2019-01-10T05:14:23.256Z,2.40
2019-01-10T05:16:15.183Z,2.35
2019-01-10T05:17:15.164Z,2.34
2019-01-10T05:19:07.060Z,2.38
2019-01-10T05:20:07.065Z,2.34
2019-01-10T05:21:59.004Z,2.31
2019-01-10T05:22:58.985Z,2.30
2019-01-10T05:24:50.889Z,2.35
2019-01-10T05:25:50.899Z,2.35
2019-01-10T05:27:42.825Z,2.31
2019-01-10T05:28:42.816Z,2.26
2019-01-10T05:30:34.736Z,2.17
2019-01-10T05:31:34.722Z,2.12
2019-01-10T05:33:26.638Z,2.12
2019-01-10T05:34:26.638Z,2.04
2019-01-10T05:36:18.564Z,1.91
2019-01-10T05:37:18.543Z,1.85
2019-01-10T05:39:10.446Z,1.72
2019-01-10T05:40:10.445Z,1.72
2019-01-10T05:42:02.373Z,1.76
2019-01-10T05:43:02.353Z,1.72
2019-01-10T05:44:54.348Z,1.73
2019-01-10T05:45:54.355Z,1.69
2019-01-10T05:47:47.826Z,1.62
2019-01-10T05:48:47.808Z,1.68
2019-01-10T05:50:39.773Z,1.60
2019-01-10T05:51:39.741Z,1.65
2019-01-10T05:53:32.144Z,1.65
2019-01-10T05:54:32.137Z,1.61
2019-01-10T05:56:24.086Z,1.62
2019-01-10T05:57:24.067Z,1.68
2019-01-10T05:59:15.967Z,1.73
2019-01-10T06:00:15.980Z,1.82
2019-01-10T06:02:07.885Z,1.89
2019-01-10T06:03:07.882Z,1.89
2019-01-10T06:05:00.637Z,1.98
2019-01-10T06:05:59.998Z,2.06
2019-01-10T06:07:52.084Z,1.94
2019-01-10T06:08:51.951Z,2.09
2019-01-10T06:10:45.690Z,2.16
2019-01-10T06:11:43.856Z,2.06
2019-01-10T06:13:35.802Z,2.16
2019-01-10T06:14:36.029Z,2.09
2019-01-10T06:16:27.733Z,2.10
2019-01-10T06:17:27.714Z,2.09
2019-01-10T06:19:26.651Z,2.08
2019-01-10T06:20:19.663Z,2.09
2019-01-10T06:22:12.074Z,2.17
2019-01-10T06:23:11.812Z,2.15
2019-01-10T06:25:05.670Z,2.17
2019-01-10T06:26:05.468Z,2.19
2019-01-10T06:27:57.310Z,2.16
2019-01-10T06:28:57.291Z,2.22
2019-01-10T06:29:57.302Z,2.17
2019-01-10T06:30:57.315Z,2.12
2019-01-10T06:31:57.320Z,2.13
2019-01-10T06:32:57.332Z,2.17
2019-01-10T06:33:57.342Z,2.15
2019-01-10T06:34:57.407Z,2.09
2019-01-10T06:35:57.368Z,2.17
2019-01-10T06:36:57.386Z,2.12
2019-01-10T06:37:57.389Z,2.06
2019-01-10T06:38:57.395Z,2.04
2019-01-10T06:39:57.407Z,2.12
2019-01-10T06:40:57.426Z,2.09
2019-01-10T06:41:57.429Z,2.08
2019-01-10T06:42:57.484Z,2.02
2019-01-10T06:43:57.455Z,2.09
2019-01-10T06:44:57.490Z,2.15
2019-01-10T06:45:57.477Z,2.09
2019-01-10T06:46:57.507Z,2.09
2019-01-10T06:47:57.496Z,2.19
2019-01-10T06:48:57.504Z,2.10
2019-01-10T06:49:57.522Z,2.02
2019-01-10T06:50:57.546Z,2.12
2019-01-10T06:51:57.542Z,2.16
2019-01-10T06:52:57.548Z,2.12
2019-01-10T06:53:57.572Z,2.13
2019-01-10T06:54:57.566Z,2.10
2019-01-10T06:55:57.574Z,2.19
2019-01-10T06:56:57.587Z,2.17
2019-01-10T06:57:57.596Z,2.16
2019-01-10T06:58:57.609Z,2.10
2019-01-10T06:59:57.623Z,2.17
2019-01-10T07:00:57.629Z,2.08
2019-01-10T07:01:57.642Z,2.08
2019-01-10T07:02:57.658Z,2.16
2019-01-10T07:03:57.663Z,2.16
2019-01-10T07:04:57.672Z,2.13
2019-01-10T07:05:57.686Z,2.12
2019-01-10T07:06:57.702Z,2.15
2019-01-10T07:07:57.710Z,2.20
2019-01-10T07:08:57.724Z,2.13
2019-01-10T07:09:57.726Z,2.17
2019-01-10T07:10:57.741Z,2.15
2019-01-10T07:11:57.747Z,2.08
2019-01-10T07:12:57.759Z,2.10
2019-01-10T07:13:57.774Z,1.98
2019-01-10T07:14:57.834Z,1.90
2019-01-10T07:15:57.785Z,1.85
2019-01-10T07:16:57.801Z,1.85
2019-01-10T07:17:57.876Z,1.85
2019-01-10T07:18:57.815Z,1.94
2019-01-10T07:19:57.839Z,1.93
2019-01-10T07:20:57.886Z,1.87
2019-01-10T07:21:57.845Z,2.01
2019-01-10T07:22:57.863Z,2.09
2019-01-10T07:23:57.872Z,2.10
2019-01-10T07:24:57.882Z,2.12
2019-01-10T07:25:57.895Z,2.17
2019-01-10T07:26:57.898Z,2.06
2019-01-10T07:27:57.976Z,2.09
2019-01-10T07:28:57.935Z,2.12
2019-01-10T07:29:59.547Z,2.12
2019-01-10T07:30:57.975Z,2.06
2019-01-10T07:31:58.045Z,1.89
2019-01-10T07:32:57.966Z,1.97
2019-01-10T07:33:58.049Z,1.99
2019-01-10T07:34:58.096Z,1.89
2019-01-10T07:35:58.013Z,1.94
2019-01-10T07:36:58.016Z,1.94
2019-01-10T07:37:58.023Z,2.04
2019-01-10T07:38:58.218Z,1.97
2019-01-10T07:39:58.051Z,1.98
2019-01-10T07:40:58.054Z,1.85
2019-01-10T07:41:58.070Z,1.87
2019-01-10T07:42:58.080Z,2.02
2019-01-10T07:43:58.096Z,1.87
2019-01-10T07:45:02.900Z,2.08
2019-01-10T07:45:58.110Z,2.02
2019-01-10T07:46:58.123Z,2.09
2019-01-10T07:47:58.195Z,2.08
2019-01-10T07:48:58.148Z,2.06
2019-01-10T07:49:58.213Z,2.06
2019-01-10T07:50:58.160Z,2.02
2019-01-10T07:51:58.171Z,2.01
2019-01-10T07:52:58.184Z,1.99
2019-01-10T07:53:58.193Z,1.94
2019-01-10T07:54:58.205Z,1.91
2019-01-10T07:55:58.217Z,1.94
2019-01-10T07:56:58.233Z,1.89
2019-01-10T07:57:58.236Z,1.87
2019-01-10T07:58:58.243Z,1.89
2019-01-10T07:59:58.259Z,1.94
2019-01-10T08:00:58.265Z,2.02
2019-01-10T08:01:58.279Z,1.89
2019-01-10T08:02:58.302Z,2.06
2019-01-10T08:03:58.313Z,2.09
2019-01-10T08:04:58.317Z,2.06
2019-01-10T08:05:58.328Z,1.93
2019-01-10T08:06:58.334Z,2.06
2019-01-10T08:07:58.345Z,1.90
2019-01-10T08:08:58.385Z,1.90
2019-01-10T08:09:58.378Z,1.87
2019-01-10T08:10:58.388Z,2.02
2019-01-10T08:12:00.657Z,2.06
2019-01-10T08:12:58.405Z,1.98
2019-01-10T08:13:58.439Z,2.01
2019-01-10T08:14:58.407Z,1.97
2019-01-10T08:15:58.438Z,2.08
2019-01-10T08:16:58.458Z,2.06
2019-01-10T08:17:58.452Z,2.01
2019-01-10T08:18:58.450Z,1.97
2019-01-10T08:19:58.487Z,2.09
2019-01-10T08:20:58.542Z,2.04
2019-01-10T08:21:58.583Z,2.08
2019-01-10T08:22:58.539Z,2.15
2019-01-10T08:23:58.542Z,2.20
2019-01-10T08:24:58.595Z,2.19
2019-01-10T08:25:58.565Z,2.20
2019-01-10T08:26:58.624Z,2.10
2019-01-10T08:27:59.567Z,2.23
2019-01-10T08:28:58.596Z,2.23
2019-01-10T08:29:58.572Z,2.28
2019-01-10T08:30:58.582Z,2.22
2019-01-10T08:31:59.239Z,2.34
2019-01-10T08:32:58.645Z,2.40
2019-01-10T08:33:58.648Z,2.37
2019-01-10T08:34:58.648Z,2.37
2019-01-10T08:35:58.658Z,2.34
2019-01-10T08:36:58.646Z,2.22
2019-01-10T08:37:58.677Z,2.33
2019-01-10T08:38:58.669Z,2.28
2019-01-10T08:39:58.700Z,2.31
2019-01-10T08:40:58.695Z,2.28
2019-01-10T08:41:58.706Z,2.22
2019-01-10T08:42:58.806Z,2.35
2019-01-10T08:43:58.804Z,2.33
2019-01-10T08:44:58.797Z,2.40
2019-01-10T08:45:58.769Z,2.38
2019-01-10T08:46:58.828Z,2.37
2019-01-10T08:47:58.773Z,2.35
2019-01-10T08:48:58.798Z,2.34
2019-01-10T08:49:58.790Z,2.41
2019-01-10T08:50:58.855Z,2.40
2019-01-10T08:51:58.887Z,2.34
2019-01-10T08:52:58.820Z,2.38
2019-01-10T08:53:58.856Z,2.44
2019-01-10T08:54:58.919Z,2.40
2019-01-10T08:55:58.912Z,2.38
2019-01-10T08:56:58.897Z,2.40
2019-01-10T08:57:58.921Z,2.30
2019-01-10T08:58:58.906Z,2.28
2019-01-10T08:59:58.889Z,2.30
2019-01-10T09:00:58.910Z,2.27
2019-01-10T09:01:58.915Z,2.34
2019-01-10T09:02:58.995Z,2.31
2019-01-10T09:03:58.938Z,2.30
2019-01-10T09:04:58.963Z,2.23
2019-01-10T09:06:07.888Z,2.31
2019-01-10T09:06:59.051Z,2.44
2019-01-10T09:07:58.987Z,2.44
2019-01-10T09:09:01.050Z,2.41
2019-01-10T09:09:59.002Z,2.37
2019-01-10T09:10:59.749Z,2.40
2019-01-10T09:11:59.063Z,2.38
2019-01-10T09:12:59.055Z,2.37
2019-01-10T09:13:59.046Z,2.35
2019-01-10T09:14:59.113Z,2.40
2019-01-10T09:15:59.141Z,2.37
2019-01-10T09:16:59.129Z,2.44
2019-01-10T09:17:59.125Z,2.49
2019-01-10T09:18:59.138Z,2.45
2019-01-10T09:19:59.161Z,2.53
2019-01-10T09:21:04.280Z,2.56
2019-01-10T09:21:59.123Z,2.58
2019-01-10T09:22:59.215Z,2.63
2019-01-10T09:23:59.161Z,2.69
2019-01-10T09:24:59.222Z,2.74
2019-01-10T09:25:59.175Z,2.69
2019-01-10T09:26:59.184Z,2.70
2019-01-10T09:27:59.189Z,2.71
2019-01-10T09:28:59.211Z,2.81
2019-01-10T09:29:59.218Z,2.79
2019-01-10T09:30:59.258Z,2.79
2019-01-10T09:31:59.301Z,2.77
2019-01-10T09:32:59.244Z,2.67
2019-01-10T09:33:59.257Z,2.73
2019-01-10T09:34:59.268Z,2.76
2019-01-10T09:35:59.313Z,2.73
2019-01-10T09:36:59.435Z,2.79
2019-01-10T09:37:59.307Z,2.79
2019-01-10T09:38:59.342Z,2.64
2019-01-10T09:39:59.359Z,2.69
2019-01-10T09:40:59.932Z,2.59
2019-01-10T09:42:00.189Z,2.67
2019-01-10T09:42:59.593Z,2.67
2019-01-10T09:45:25.698Z,2.79
